OIKQ  Dayrestan  Airport

Iran

Add Bookmark
ICAO OIKQ
Type Airport
Status Operational
Latitude
26° 45' 16" N
26.754601
Longitude
55° 54' 8" E
55.902401
Local (DST + 5) UTC (GMT + 4)
May 26, 2015 05:50 May 26, 2015 01:20
Sunrise-Sunset Local UTC
Begin Civil Twilight 05:27 00:57
Sunrise 05:53 01:23
Sunset 07:33 15:03
End Civil Twilight 07:59 15:29
VFR
VFR
MVFR
MVFR
IFR
VFR
LIFR
VFR
Unknown
Unavailable

Current Weather

METAR Observed IFR
OIKQ 260000Z 26010KT 3000 BR NSC 29/25 Q1002 Tue, May 26, 2015 @ 00:00 UTC
(1 Hour, 20 Minutes ago)
Instrument Flight Rules
Wind Visibility Conditions
260° at 10 knots (19 kph) 2,993 m
  • Mist
Temperatures Readings Precipitation
Current Temp
29°C
84°F
Dewpoint
25°C
77°F
Heat Index
34°C
94°
Humidity 79%
Altimeter 29.59" Hg
Sea Level Pressure 1,002 mb
Field Elevation
12 m
39 ft
None Recorded

Additional weather within a 92.6km radius of OIKQ

Map ICAO Location
OIKB 69.8km NE (042°)
VFR
VFR
MVFR
MVFR
IFR
VFR
LIFR
VFR
Unknown
Unavailable
-
-

CheckWX.com is intended as a tool to help pilots better visualize weather data. It is not intended as a substitute for an official weather briefing obtained from a Flight Service Station. CheckWX.com does not meet the FAA requirements for an official pre-flight weather briefing. Therefore, it's important that pilots still call and obtain an official FSS pre-flight weather briefing.

© 2007-2015 CheckWX.com
01:20:21 UTC